• Join FlightAware (Why Join?)
  • Login
  • US Flag 
Rudolph Flight #1: Scheduled 
11:08PM EST


 

Airport Tracker/Info


-or-


 

Live Flight TrackerFlight Track Log ✈ CTL312 ✈ 17-Apr-2013 ✈ KBKL - KMBS

Flight Track Log - Related Links

Times and Time Zones

All times are in EDT time to prevent confusion due to time zone crossing. See the CTL312 flight status page for this flight to view local times or setup timezone preferences in your user account.

Time Position Orientation Groundspeed Altitude Reporting Facility
EDT Latitude Longitude Course Direction KTS MPH feet Rate Location/Type
06:47PM 41.5294 -81.6869 314° West 137 158 1,200  Level Cleveland Center
06:48PM 41.5561 -81.7236 314° West 167 192 1,800 660 Climbing Cleveland Center
06:49PM 41.5911 -81.7742 313° West 184 212 2,500 600 Climbing Cleveland Center
06:49PM 41.6033 -81.7939 310° West 179 206 2,700 480 Climbing Cleveland Center
06:50PM 41.6261 -81.8192 320° Northwest 183 211 3,000 600 Climbing Cleveland Center
06:50PM 41.6425 -81.8392 318° Northwest 189 217 3,300 660 Climbing Cleveland Center
06:51PM 41.6714 -81.8675 324° Northwest 186 214 3,700 480 Climbing Cleveland Center
06:51PM 41.6775 -81.8786 306° West 184 212 3,800 180 Climbing Cleveland Center
06:52PM 41.7167 -81.9211 321° Northwest 184 212 4,000 60 Climbing Cleveland Center
06:53PM 41.7536 -81.9636 319° Northwest 184 212 4,000  Level Cleveland Center
06:54PM 41.7928 -82.0064 321° Northwest 184 212 4,000  Level Cleveland Center
06:55PM 41.8297 -82.0489 319° Northwest 184 212 4,000  Level Cleveland Center
06:56PM 41.8644 -82.0944 316° Northwest 184 212 4,000  Level Cleveland Center
06:57PM 41.9014 -82.1369 319° Northwest 179 206 4,000  Level Cleveland Center
06:58PM 41.9447 -82.1856 320° Northwest 179 206 4,000  Level Cleveland Center
06:59PM 41.9814 -82.2311 317° Northwest 184 212 4,000  Level Cleveland Center
07:00PM 42.0183 -82.2686 323° Northwest 182 209 4,000  Level Cleveland Center
07:01PM 42.0450 -82.3000 319° Northwest 181 208 4,000  Level Cleveland Center
07:01PM 42.0594 -82.3200 314° West 184 212 4,000 60 Level Cleveland Center
07:02PM 42.0839 -82.3486 319° Northwest 179 206 4,100 60 Climbing Cleveland Center
07:02PM 42.0942 -82.3628 314° West 184 212 4,100 -120 Level Cleveland Center
07:03PM 42.1208 -82.3917 321° Northwest 190 219 4,000 -120 Descending Cleveland Center
07:03PM 42.1350 -82.4086 318° Northwest 183 211 4,000 60 Level Cleveland Center
07:04PM 42.1681 -82.4406 324° Northwest 185 213 4,100 60 Climbing Cleveland Center
07:04PM 42.1761 -82.4519 314° West 183 211 4,100  Level Cleveland Center
07:05PM 42.2069 -82.4864 320° Northwest 186 214 4,100  Level Cleveland Center
07:06PM 42.2539 -82.5414 319° Northwest 183 211 4,100 -60 Level Cleveland Center
07:07PM 42.2867 -82.5786 320° Northwest 186 214 4,000  Descending Cleveland Center
07:08PM 42.3314 -82.6308 319° Northwest 188 216 4,100  Climbing Cleveland Center
07:09PM 42.3703 -82.6769 319° Northwest 188 216 4,100  Level Cleveland Center
07:10PM 42.4111 -82.7261 318° Northwest 190 219 4,100  Level Cleveland Center
07:11PM 42.4539 -82.7725 321° Northwest 189 217 4,100  Level Cleveland Center
07:12PM 42.4844 -82.8103 318° Northwest 190 219 4,100 -60 Level Cleveland Center
07:13PM 42.5272 -82.8597 320° Northwest 198 228 4,000  Descending Cleveland Center
07:14PM 42.5681 -82.9064 320° Northwest 195 224 4,100  Climbing Cleveland Center
07:16PM 42.6367 -82.9867 319° Northwest 192 221 4,100  Level FAA TRACON SMA TRACON (SMA)
07:16PM 42.6494 -83.0014 320° Northwest 196 226 4,100  Level FAA TRACON SMA TRACON (SMA)
07:16PM 42.6656 -83.0200 320° Northwest 196 226 4,100 -180 Level FAA TRACON SMA TRACON (SMA)
07:17PM 42.6789 -83.0344 321° Northwest 196 226 4,000  Descending FAA TRACON SMA TRACON (SMA)
07:17PM 42.6956 -83.0531 321° Northwest 200 230 4,100 120 Climbing FAA TRACON SMA TRACON (SMA)
07:17PM 42.7086 -83.0678 320° Northwest 199 229 4,100  Level FAA TRACON SMA TRACON (SMA)
07:18PM 42.7214 -83.0828 319° Northwest 198 228 4,100  Level FAA TRACON SMA TRACON (SMA)
07:18PM 42.7369 -83.1017 318° Northwest 197 227 4,100  Level FAA TRACON SMA TRACON (SMA)
07:18PM 42.7497 -83.1169 319° Northwest 196 226 4,100 -180 Level FAA TRACON SMA TRACON (SMA)
07:19PM 42.7622 -83.1322 318° Northwest 196 226 4,000 -180 Descending FAA TRACON SMA TRACON (SMA)
07:19PM 42.7781 -83.1511 319° Northwest 196 226 4,000  Level FAA TRACON SMA TRACON (SMA)
07:20PM 42.8028 -83.1817 318° Northwest 195 224 4,000 -120 Level FAA TRACON SMA TRACON (SMA)
07:20PM 42.8150 -83.1975 316° Northwest 196 226 3,900  Descending FAA TRACON SMA TRACON (SMA)
07:20PM 42.8300 -83.2186 314° West 199 229 4,000  Climbing FAA TRACON SMA TRACON (SMA)
07:21PM 42.8408 -83.2361 310° West 199 229 3,900 -180 Descending FAA TRACON SMA TRACON (SMA)
07:21PM 42.8525 -83.2531 313° West 199 229 3,900 -180 Level FAA TRACON SMA TRACON (SMA)
07:21PM 42.8656 -83.2758 308° West 198 228 3,800 -480 Descending FAA TRACON SMA TRACON (SMA)
07:22PM 42.8733 -83.2961 298° West 197 227 3,600 -480 Descending FAA TRACON SMA TRACON (SMA)
07:22PM 42.8831 -83.3161 304° West 205 236 3,500 -480 Descending FAA TRACON SMA TRACON (SMA)
07:22PM 42.8969 -83.3386 310° West 205 236 3,300 -300 Descending FAA TRACON SMA TRACON (SMA)
07:23PM 42.9089 -83.3556 314° West 202 232 3,300  Level FAA TRACON SMA TRACON (SMA)
07:23PM 42.9233 -83.3767 313° West 199 229 3,300  Level FAA TRACON SMA TRACON (SMA)
07:23PM 42.9350 -83.3939 313° West 199 229 3,300  Level FAA TRACON SMA TRACON (SMA)
07:24PM 42.9467 -83.4103 314° West 197 227 3,300 -300 Level FAA TRACON SMA TRACON (SMA)
07:24PM 42.9583 -83.4258 316° Northwest 195 224 3,100 -480 Descending FAA TRACON SMA TRACON (SMA)
07:24PM 42.9733 -83.4475 313° West 202 232 3,000  Descending FAA TRACON SMA TRACON (SMA)
07:25PM 42.9853 -83.4644 314° West 200 230 3,100  Climbing FAA TRACON SMA TRACON (SMA)
07:25PM 42.9975 -83.4808 316° Northwest 199 229 3,000 -180 Descending FAA TRACON SMA TRACON (SMA)
07:25PM 43.0125 -83.5014 315° West 198 228 3,000  Level FAA TRACON SMA TRACON (SMA)
07:26PM 43.0247 -83.5186 314° West 197 227 3,000  Level FAA TRACON SMA TRACON (SMA)
07:26PM 43.0367 -83.5347 315° West 196 226 3,000  Level FAA TRACON SMA TRACON (SMA)
07:26PM 43.0514 -83.5547 315° West 194 223 3,000  Level FAA TRACON SMA TRACON (SMA)
07:27PM 43.0631 -83.5700 316° Northwest 192 221 3,000  Level FAA TRACON SMA TRACON (SMA)
07:27PM 43.0747 -83.5844 318° Northwest 188 216 3,000  Level FAA TRACON SMA TRACON (SMA)
07:27PM 43.0808 -83.5919 318° Northwest 188 216 3,000  Level FAA TRACON SMA TRACON (SMA)
07:28PM 43.0808 -83.5919 316° Northwest 188 216 3,000  Level FAA TRACON SMA TRACON (SMA)
07:30PM 43.1482 -83.6372 334° Northwest  Level FlightAware Approximate
07:37PM 43.4278 -83.9404 317° Northwest  Level FlightAware Approximate
07:38PM 43.4652 -83.9885 317° Northwest  Level FlightAware Approximate
07:39PM 43.5020 -84.0374 305° West  Level FlightAware Approximate
07:40PM 43.5167 -84.0667 305° West  Level FlightAware Approximate
07:41PM 43.5329 -84.0796 305° West  Level Estimated
07:42PM 43.5329 -84.0796 305° West  Level Estimated
07:43PM 43.5329 -84.0796 305° West  Level Estimated
07:44PM 43.5329 -84.0796 305° West  Level Estimated
07:45PM 43.5329 -84.0796 305° West  Level Estimated
07:46PM 43.5329 -84.0796 305° West  Level Estimated
07:47PM 43.5329 -84.0796 305° West  Level Estimated
07:48PM 43.5329 -84.0796 305° West  Level Estimated